Flight Track Log - Related Links

Times and Time Zones

All times are in EDT time to prevent confusion due to time zone crossing. See the N618JB flight status page for this flight to view local times or setup timezone preferences in your user account.

Time Position Orientation Groundspeed Altitude Reporting Facility
EDT Latitude Longitude Course Direction KTS MPH feet Rate Location/Type
Thu 07:06:17 PM 43.1089 -76.0922 204° Southwest 167 192 1,300  Level Boston Center
Thu 07:07:11 PM 43.0786 -76.0619 144° Southeast 215 247 2,800 2,452 Climbing Boston Center
Thu 07:08:12 PM 43.0203 -76.1267 219° Southwest 289 333 6,000 3,443 Climbing Boston Center
Thu 07:09:00 PM 42.7589 -76.4987 210° Southwest  Level FlightAware Approximate
Thu 07:09:13 PM 42.9803 -76.1981 233° Southwest 224 258 9,800  Level Boston Center
Thu 07:10:00 PM 42.6605 -76.5752 210° Southwest  Level FlightAware Approximate
Thu 07:11:00 PM 42.5827 -76.6404 204° Southwest  Level FlightAware Approximate
Thu 07:11:42 PM 42.8464 -76.4194 231° Southwest 321 369 11,600  Level New York Center
Thu 07:12:40 PM 42.7778 -76.5036 222° Southwest 338 389 14,300 2,390 Climbing New York Center
Thu 07:13:40 PM 42.6914 -76.5722 210° Southwest 343 395 16,300 1,686 Climbing New York Center
Thu 07:14:41 PM 42.6094 -76.6325 208° Southwest 362 417 17,700 1,785 Climbing New York Center
Thu 07:15:41 PM 42.5142 -76.7056 209° Southwest 388 447 19,900 2,083 Climbing New York Center
Thu 07:16:42 PM 42.4189 -76.7783 209° Southwest 398 458 21,900 1,537 Climbing New York Center
Thu 07:17:42 PM 42.3236 -76.8511 209° Southwest 398 458 23,000 712 Climbing New York Center
Thu 07:18:40 PM 42.2306 -76.9208 209° Southwest 392 451 23,300 763 Climbing New York Center
Thu 07:19:40 PM 42.1331 -76.9956 210° Southwest 397 457 24,500 1,240 Climbing New York Center
Thu 07:20:41 PM 42.0372 -77.0733 211° Southwest 397 457 25,800 1,328 Climbing New York Center
Thu 07:21:42 PM 41.9414 -77.1561 213° Southwest 408 470 27,200 1,240 Climbing New York Center
Thu 07:22:42 PM 41.8411 -77.2356 211° Southwest 408 470 28,300 1,220 Climbing New York Center
Thu 07:23:40 PM 41.7386 -77.3203 212° Southwest 420 483 29,600 1,210 Climbing New York Center
Thu 07:24:41 PM 41.6403 -77.4050 213° Southwest 425 489 30,700 1,438 Climbing New York Center
Thu 07:25:41 PM 41.5400 -77.4839 210° Southwest 430 495 32,500 1,587 Climbing New York Center
Thu 07:26:42 PM 41.4458 -77.5658 213° Southwest 430 495 33,900 744 Climbing New York Center
Thu 07:27:42 PM 41.3431 -77.6467 211° Southwest 419 482 34,000 31 Climbing New York Center
Thu 07:29:57 PM 41.1303 -77.8181 211° Southwest 406 467 34,000  Level Cleveland Center
Thu 07:30:57 PM 41.0342 -77.8964 212° Southwest 406 467 34,000  Level Cleveland Center
Thu 07:31:57 PM 40.9400 -77.9744 212° Southwest 406 467 34,000  Level Cleveland Center
Thu 07:32:57 PM 40.8589 -78.0739 223° Southwest 401 461 34,000  Level Cleveland Center
Thu 07:33:57 PM 40.7903 -78.1861 231° Southwest 395 455 34,000  Level Cleveland Center
Thu 07:34:57 PM 40.7197 -78.2983 230° Southwest 395 455 34,000  Level Cleveland Center
Thu 07:35:57 PM 40.6489 -78.4047 229° Southwest 400 460 34,000  Level Cleveland Center
Thu 07:36:57 PM 40.5781 -78.5192 231° Southwest 400 460 34,000  Level Cleveland Center
Thu 07:37:57 PM 40.5050 -78.6281 229° Southwest 405 466 34,000  Level Cleveland Center
Thu 07:38:57 PM 40.4336 -78.7364 229° Southwest 405 466 34,000  Level Cleveland Center
Thu 07:39:57 PM 40.3369 -78.8125 211° Southwest 405 466 34,000  Level Cleveland Center
Thu 07:40:57 PM 40.2294 -78.8781 205° Southwest 410 472 34,000  Level Cleveland Center
Thu 07:42:39 PM 40.0578 -78.9850 205° Southwest 399 459 34,000  Level Washington Center
Thu 07:43:39 PM 39.9539 -79.0478 205° Southwest 410 472 34,000  Level Washington Center
Thu 07:44:39 PM 39.8478 -79.1131 205° Southwest 415 478 34,000  Level Washington Center
Thu 07:45:39 PM 39.7458 -79.1756 205° Southwest 415 478 34,000  Level Washington Center
Thu 07:46:39 PM 39.6358 -79.2319 202° Southwest 420 483 34,000 50 Level Washington Center
Thu 07:47:39 PM 39.5139 -79.2661 192° South 436 502 34,100  Climbing Washington Center
Thu 07:48:39 PM 39.4025 -79.2956 192° South 426 490 34,000 -50 Descending Washington Center
Thu 07:49:39 PM 39.2869 -79.3269 192° South 421 484 34,000  Level Washington Center
Thu 07:50:39 PM 39.1733 -79.3614 193° South 421 484 34,000  Level Washington Center
Thu 07:51:39 PM 39.0617 -79.3958 193° South 415 478 34,000  Level Washington Center
Thu 07:52:39 PM 38.9378 -79.4267 191° South 429 494 34,000  Level Washington Center
Thu 07:53:39 PM 38.8200 -79.4606 193° South 434 499 34,000  Level Washington Center
Thu 07:54:39 PM 38.7122 -79.5000 196° South 429 494 34,000  Level Washington Center
Thu 07:55:39 PM 38.5967 -79.5311 192° South 429 494 34,000 150 Level Washington Center
Thu 07:56:39 PM 38.4661 -79.5667 192° South 429 494 34,300 800 Climbing Washington Center
Thu 07:57:39 PM 38.3544 -79.5978 192° South 429 494 35,600 850 Climbing Washington Center
Thu 07:58:39 PM 38.2408 -79.6314 193° South 429 494 36,000 200 Climbing Washington Center
Thu 07:59:39 PM 38.1397 -79.6603 193° South 423 487 36,000  Level Washington Center
Thu 08:00:39 PM 38.0219 -79.6908 192° South 423 487 36,000  Level Washington Center
Thu 08:01:39 PM 37.9081 -79.7239 193° South 423 487 36,000  Level Washington Center
Thu 08:02:39 PM 37.7797 -79.7589 192° South 429 494 36,000  Level Washington Center
Thu 08:03:39 PM 37.6619 -79.7839 190° South 429 494 36,000  Level Washington Center
Thu 08:04:39 PM 37.5481 -79.8197 194° South 429 494 36,000  Level Washington Center
Thu 08:05:39 PM 37.4406 -79.8528 194° South 429 494 36,000  Level Washington Center
Thu 08:06:39 PM 37.3225 -79.8828 191° South 435 501 36,000  Level Washington Center
Thu 08:07:39 PM 37.2047 -79.9128 191° South 435 501 36,000  Level Washington Center
Thu 08:09:39 PM 36.9544 -79.9789 192° South 439 505 36,000  Level Atlanta Center
Thu 08:10:39 PM 36.8347 -80.0083 191° South 444 511 36,000  Level Atlanta Center
Thu 08:11:39 PM 36.7292 -80.0372 192° South 444 511 36,000  Level Atlanta Center
Thu 08:12:39 PM 36.6094 -80.0689 192° South 444 511 36,000  Level Atlanta Center
Thu 08:13:39 PM 36.4914 -80.1006 192° South 444 511 36,000  Level Atlanta Center
Thu 08:14:39 PM 36.3714 -80.1297 191° South 444 511 36,000  Level Atlanta Center
Thu 08:15:39 PM 36.2411 -80.1644 192° South 444 511 36,000  Level Atlanta Center
Thu 08:16:39 PM 36.1214 -80.1983 193° South 449 517 36,000  Level Atlanta Center
Thu 08:17:39 PM 36.0033 -80.2272 191° South 449 517 36,000  Level Atlanta Center
Thu 08:18:39 PM 35.8956 -80.2553 192° South 443 510 36,000  Level Atlanta Center
Thu 08:19:39 PM 35.7800 -80.2889 193° South 438 504 36,000  Level Atlanta Center
Thu 08:20:39 PM 35.6619 -80.3197 192° South 438 504 36,000  Level Atlanta Center
Thu 08:21:39 PM 35.5336 -80.3536 192° South 438 504 36,000  Level Atlanta Center
Thu 08:22:39 PM 35.4156 -80.3844 192° South 438 504 36,000  Level Atlanta Center
Thu 08:23:39 PM 35.2997 -80.4150 192° South 438 504 36,000  Level Atlanta Center
Thu 08:26:16 PM 35.0028 -80.4928 192° South 413 475 36,000  Level Jacksonville Center
Thu 08:27:16 PM 34.8822 -80.5214 191° South 432 497 36,000  Level Jacksonville Center
Thu 08:28:16 PM 34.7578 -80.5578 194° South 427 491 36,000 -50 Level Jacksonville Center
Thu 08:29:16 PM 34.6414 -80.5836 190° South 427 491 35,900  Descending Jacksonville Center
Thu 08:30:16 PM 34.5253 -80.6169 193° South 432 497 36,000 50 Climbing Jacksonville Center
Thu 08:31:16 PM 34.4089 -80.6450 191° South 432 497 36,000  Level Jacksonville Center
Thu 08:32:16 PM 34.2947 -80.6733 192° South 432 497 36,000 -50 Level Jacksonville Center
Thu 08:33:16 PM 34.1764 -80.7039 192° South 432 497 35,900 -50 Descending Jacksonville Center
Thu 08:34:16 PM 34.0619 -80.7342 192° South 432 497 35,900 50 Level Jacksonville Center
Thu 08:35:16 PM 33.9456 -80.7597 190° South 427 491 36,000 50 Climbing Jacksonville Center
Thu 08:36:16 PM 33.8272 -80.7875 191° South 427 491 36,000  Level Jacksonville Center
Thu 08:37:16 PM 33.7086 -80.8153 191° South 432 497 36,000  Level Jacksonville Center
Thu 08:38:16 PM 33.5919 -80.8281 185° South 432 497 36,000 -50 Level Jacksonville Center
Thu 08:39:16 PM 33.4733 -80.8433 186° South 432 497 35,900  Descending Jacksonville Center
Thu 08:40:16 PM 33.3525 -80.8561 185° South 427 491 36,000 50 Climbing Jacksonville Center
Thu 08:41:16 PM 33.2317 -80.8686 185° South 432 497 36,000  Level Jacksonville Center
Thu 08:42:16 PM 33.1150 -80.8811 185° South 432 497 36,000  Level Jacksonville Center
Thu 08:43:16 PM 32.9983 -80.8964 186° South 426 490 36,000 -50 Level Jacksonville Center
Thu 08:44:16 PM 32.8858 -80.9086 185° South 421 484 35,900 -50 Descending Jacksonville Center
Thu 08:45:16 PM 32.7711 -80.9211 185° South 421 484 35,900  Level Jacksonville Center
Thu 08:46:16 PM 32.6669 -80.9333 186° South 421 484 35,900 50 Level Jacksonville Center
Thu 08:47:16 PM 32.5483 -80.9456 185° South 421 484 36,000 50 Climbing Jacksonville Center
Thu 08:48:16 PM 32.4336 -80.9578 185° South 421 484 36,000  Level Jacksonville Center
Thu 08:49:16 PM 32.3064 -80.9728 186° South 421 484 36,000  Level Jacksonville Center
Thu 08:50:16 PM 32.1919 -80.9828 184° South 428 493 36,000  Level Jacksonville Center
Thu 08:51:16 PM 32.0856 -80.9947 185° South 428 493 36,000  Level Jacksonville Center
Thu 08:52:16 PM 31.9542 -81.0097 186° South 423 487 36,000  Level Jacksonville Center
Thu 08:53:16 PM 31.8397 -81.0242 186° South 423 487 36,000 50 Level Jacksonville Center
Thu 08:54:16 PM 31.7311 -81.0361 185° South 423 487 36,100 -400 Climbing Jacksonville Center
Thu 08:55:16 PM 31.6019 -81.0486 185° South 423 487 35,200 -950 Descending Jacksonville Center
Thu 08:56:16 PM 31.4997 -81.0603 186° South 418 481 34,200 -600 Descending Jacksonville Center
Thu 08:57:16 PM 31.3683 -81.0725 185° South 428 493 34,000 -100 Descending Jacksonville Center
Thu 08:58:16 PM 31.2475 -81.0894 187° South 435 501 34,000  Level Jacksonville Center
Thu 08:59:16 PM 31.1286 -81.1014 185° South 429 494 34,000  Level Jacksonville Center
Thu 09:00:16 PM 31.0100 -81.1133 185° South 429 494 34,000  Level Jacksonville Center
Thu 09:01:16 PM 30.8911 -81.1278 186° South 429 494 34,000 -50 Level Jacksonville Center
Thu 09:02:16 PM 30.7744 -81.1397 185° South 429 494 33,900 -50 Descending Jacksonville Center
Thu 09:03:16 PM 30.6533 -81.1514 185° South 429 494 33,900  Level Jacksonville Center
Thu 09:04:16 PM 30.5344 -81.1514 180° South 429 494 33,900  Level Jacksonville Center
Thu 09:05:16 PM 30.4133 -81.1486 179° South 429 494 33,900 50 Level Jacksonville Center
Thu 09:06:16 PM 30.2881 -81.1436 178° South 440 506 34,000 50 Climbing Jacksonville Center
Thu 09:07:16 PM 30.1625 -81.1389 178° South 445 512 34,000 -1,250 Level Jacksonville Center
Thu 09:08:16 PM 30.0353 -81.1364 179° South 451 519 31,500 -2,550 Descending Jacksonville Center
Thu 09:09:16 PM 29.9058 -81.1314 178° South 461 531 28,900 -2,400 Descending Jacksonville Center
Thu 09:10:16 PM 29.7825 -81.1267 178° South 456 525 26,700 -2,200 Descending Jacksonville Center
Thu 09:11:16 PM 29.6678 -81.1286 181° South 443 510 24,500 -2,250 Descending Jacksonville Center
Thu 09:12:16 PM 29.5550 -81.1233 178° South 418 481 22,200 -2,050 Descending Jacksonville Center
Thu 09:13:16 PM 29.4589 -81.1181 177° South 397 457 20,400 -2,100 Descending Jacksonville Center
Thu 09:14:16 PM 29.3503 -81.1153 179° South 392 451 18,000 -2,300 Descending Jacksonville Center
Thu 09:15:16 PM 29.2458 -81.1100 177° South 387 445 15,800 -2,150 Descending Jacksonville Center
Thu 09:16:16 PM 29.1456 -81.1022 176° South 375 432 13,700 -1,900 Descending Jacksonville Center
Thu 09:17:16 PM 29.0514 -81.0922 175° South 361 415 12,000 -1,100 Descending Jacksonville Center
Thu 09:18:16 PM 28.9700 -81.0842 175° South 330 380 11,500 -1,100 Descending Jacksonville Center
Thu 09:19:16 PM 28.8925 -81.0714 172° South 299 344 9,800 -1,600 Descending Jacksonville Center
Thu 09:20:16 PM 28.8150 -81.0608 173° South 285 328 8,300 -1,150 Descending Jacksonville Center
Thu 09:21:16 PM 28.7614 -81.0950 209° Southwest 238 274 7,500 -800 Descending Jacksonville Center
Thu 09:22:16 PM 28.7394 -81.1642 250° West 211 243 6,700 -992 Descending Jacksonville Center
Thu 09:23:17 PM 28.6833 -81.2167 219° Southwest 212 244 5,500 -1,091 Descending Orlando TRACON
Thu 09:24:17 PM 28.6500 -81.2500 221° Southwest 209 241 4,500 -905 Descending Orlando TRACON
Thu 09:25:23 PM 28.6000 -81.2833 210° Southwest 185 213 3,600 -905 Descending Orlando TRACON
Thu 09:26:23 PM 28.5667 -81.3167 221° Southwest 150 173 2,600 -952 Descending Orlando TRACON
Thu 09:27:29 PM 28.5167 -81.3333 196° South 141 162 1,600 -810 Descending Orlando TRACON
Thu 09:28:29 PM 28.4833 -81.3333 180° South 134 154 900 -700 Descending Orlando TRACON
Thu 09:30:00 PM 28.4294 -81.3090 127° Southeast  Level Estimated

Login

Don't have an account? Register now (free) for customized features, flight alerts, and more!